Time;durP1;ratioP1;P1;durP2;ratioP2;P2;SDS_P1;SDS_P2;PMS_P1;PMS_P2;Temp;Humidity;BMP_temperature;BMP_pressure;BME280_temperature;BME280_humidity;BME280_pressure;Samples;Min_cycle;Max_cycle;Signal;HPM_P1;HPM_P2
2024/04/02 00:01:08;;;;;;;1.80;0.47;;;8.60;99.90;;;;;;5040174;28;20081;-77
2024/04/02 00:03:34;;;;;;;0.63;0.63;;;8.60;99.90;;;;;;5039766;28;20433;-77
2024/04/02 00:06:01;;;;;;;1.02;0.63;;;8.50;99.90;;;;;;5038685;28;20060;-76
2024/04/02 00:08:28;;;;;;;0.50;0.30;;;8.50;99.90;;;;;;5038913;28;20041;-76
2024/04/02 00:10:55;;;;;;;1.48;0.55;;;8.50;99.90;;;;;;5037421;28;20099;-76
2024/04/02 00:13:21;;;;;;;0.40;0.40;;;8.40;99.90;;;;;;5039214;28;20050;-77
2024/04/02 00:15:49;;;;;;;1.38;0.65;;;8.40;99.90;;;;;;5041129;28;20046;-77
2024/04/02 00:18:15;;;;;;;1.50;0.40;;;8.40;99.90;;;;;;5040796;28;20049;-77
2024/04/02 00:20:43;;;;;;;3.78;0.40;;;8.40;99.90;;;;;;5039880;28;20053;-76
2024/04/02 00:23:10;;;;;;;3.60;0.50;;;8.40;99.90;;;;;;5038276;28;20061;-75
2024/04/02 00:25:37;;;;;;;1.23;0.38;;;8.40;99.90;;;;;;5036245;28;20046;-77
2024/04/02 00:28:04;;;;;;;1.45;0.70;;;8.40;99.90;;;;;;5038776;28;20053;-75
2024/04/02 00:30:32;;;;;;;0.95;0.47;;;8.40;99.90;;;;;;5056765;28;20410;-76
2024/04/02 00:32:59;;;;;;;1.10;0.60;;;8.30;99.90;;;;;;5060776;28;20484;-76
2024/04/02 00:35:26;;;;;;;0.70;0.50;;;8.30;99.90;;;;;;5060231;28;20596;-76
2024/04/02 00:37:53;;;;;;;4.53;0.30;;;8.30;99.90;;;;;;5059849;28;20055;-76
2024/04/02 00:40:20;;;;;;;2.55;0.60;;;8.30;99.90;;;;;;5064353;28;20037;-77
2024/04/02 00:42:47;;;;;;;1.60;0.55;;;8.30;99.90;;;;;;5062042;28;20401;-77
2024/04/02 00:45:14;;;;;;;1.58;0.65;;;8.20;99.90;;;;;;5062556;28;20040;-76
2024/04/02 00:47:40;;;;;;;1.85;0.70;;;8.20;99.90;;;;;;5066381;28;20057;-76
2024/04/02 00:50:11;;;;;;;1.50;0.50;;;8.20;99.90;;;;;;5061043;28;20429;-77
2024/04/02 00:52:38;;;;;;;1.13;0.60;;;8.20;99.90;;;;;;5056769;28;20057;-76
2024/04/02 00:55:05;;;;;;;3.92;0.52;;;8.20;99.90;;;;;;5057243;28;20509;-76
2024/04/02 00:57:31;;;;;;;0.38;0.35;;;8.20;99.90;;;;;;5056489;28;20057;-76
2024/04/02 00:59:58;;;;;;;2.30;0.40;;;8.20;99.90;;;;;;5056922;28;20048;-76
2024/04/02 01:02:23;;;;;;;2.25;0.40;;;8.10;99.90;;;;;;5056524;28;20520;-77
2024/04/02 01:04:50;;;;;;;1.35;0.75;;;8.10;99.90;;;;;;5058924;28;20049;-77
2024/04/02 01:07:18;;;;;;;0.98;0.50;;;8.10;99.90;;;;;;5057562;28;20053;-77
2024/04/02 01:09:45;;;;;;;1.02;0.40;;;8.10;99.90;;;;;;5056400;28;20049;-77
2024/04/02 01:12:11;;;;;;;3.50;1.08;;;8.10;99.90;;;;;;5055859;28;20045;-76
2024/04/02 01:14:39;;;;;;;3.05;0.50;;;8.10;99.90;;;;;;5055777;28;20128;-77
2024/04/02 01:17:05;;;;;;;0.77;0.55;;;8.10;99.90;;;;;;5055169;28;20056;-77
2024/04/02 01:19:31;;;;;;;0.93;0.30;;;8.10;99.90;;;;;;5055499;28;20048;-76
2024/04/02 01:21:57;;;;;;;1.38;0.70;;;8.10;99.90;;;;;;5055488;28;20509;-76
2024/04/02 01:24:26;;;;;;;1.45;0.57;;;8.10;99.90;;;;;;5055747;28;20056;-77
2024/04/02 01:26:53;;;;;;;3.33;0.50;;;8.00;99.90;;;;;;5055193;28;20061;-77
2024/04/02 01:29:20;;;;;;;0.80;0.47;;;8.00;99.90;;;;;;5055894;28;20124;-76
2024/04/02 01:31:45;;;;;;;0.65;0.43;;;8.00;99.90;;;;;;5055578;28;20053;-76
2024/04/02 01:34:13;;;;;;;1.20;0.30;;;8.00;99.90;;;;;;5055372;28;20044;-75
2024/04/02 01:36:39;;;;;;;2.08;0.52;;;8.00;99.90;;;;;;5057667;28;20056;-78
2024/04/02 01:39:07;;;;;;;2.33;0.43;;;7.90;99.90;;;;;;5056522;28;20405;-76
2024/04/02 01:41:33;;;;;;;1.55;0.57;;;8.00;99.90;;;;;;5055585;28;20053;-75
2024/04/02 01:44:01;;;;;;;1.40;0.50;;;8.00;99.90;;;;;;5056234;28;20421;-76
2024/04/02 01:46:29;;;;;;;0.82;0.40;;;8.00;99.90;;;;;;5059545;28;20049;-76
2024/04/02 01:49:05;;;;;;;2.88;0.50;;;8.00;99.90;;;;;;5071952;28;20075;-76
2024/04/02 01:52:03;;;;;;;2.67;0.35;;;7.90;99.90;;;;;;5074780;28;20040;-76
2024/04/02 01:54:30;;;;;;;2.17;0.63;;;8.00;99.90;;;;;;5067114;28;20049;-77
2024/04/02 01:56:58;;;;;;;2.20;1.25;;;7.90;99.90;;;;;;5068230;28;20052;-75
2024/04/02 01:59:26;;;;;;;1.88;0.60;;;7.90;99.90;;;;;;5062064;28;20072;-76
2024/04/02 02:01:52;;;;;;;1.08;0.40;;;8.00;99.90;;;;;;5064814;28;20052;-76
2024/04/02 02:04:19;;;;;;;1.33;0.68;;;7.90;99.90;;;;;;5067145;28;20044;-77
2024/04/02 02:06:45;;;;;;;3.33;0.52;;;8.00;99.90;;;;;;5060556;28;20049;-75
2024/04/02 02:09:13;;;;;;;1.58;0.47;;;7.90;99.90;;;;;;5055086;28;20037;-76
2024/04/02 02:11:39;;;;;;;0.52;0.30;;;7.90;99.90;;;;;;5058175;28;20048;-77
2024/04/02 02:14:08;;;;;;;0.95;0.38;;;7.90;99.90;;;;;;5059098;28;20508;-76
2024/04/02 02:16:41;;;;;;;0.50;0.45;;;7.90;99.90;;;;;;5059908;28;20059;-76
2024/04/02 02:19:07;;;;;;;1.25;0.43;;;7.90;99.90;;;;;;5060934;28;20082;-75
2024/04/02 02:21:33;;;;;;;1.55;0.43;;;7.90;99.90;;;;;;5055417;28;20045;-76
2024/04/02 02:24:00;;;;;;;1.40;0.60;;;7.90;99.90;;;;;;5055088;28;20052;-76
2024/04/02 02:26:26;;;;;;;0.98;0.50;;;7.90;99.90;;;;;;5055266;28;20048;-75
2024/04/02 02:28:53;;;;;;;3.63;0.60;;;7.90;99.90;;;;;;5052902;28;20136;-76
2024/04/02 02:31:18;;;;;;;0.73;0.47;;;7.90;99.90;;;;;;5036142;28;20053;-76
2024/04/02 02:33:49;;;;;;;0.40;0.40;;;7.90;99.90;;;;;;5036253;28;20046;-76
2024/04/02 02:36:14;;;;;;;1.35;0.70;;;7.90;99.90;;;;;;5035733;28;20057;-77
2024/04/02 02:38:41;;;;;;;1.10;0.70;;;7.90;99.90;;;;;;5035230;28;20063;-77
2024/04/02 02:41:07;;;;;;;1.27;0.63;;;7.90;99.90;;;;;;5035736;28;20046;-77
2024/04/02 02:43:38;;;;;;;0.55;0.30;;;7.90;99.90;;;;;;5035403;28;20063;-77
2024/04/02 02:46:04;;;;;;;1.40;0.60;;;7.90;99.90;;;;;;5035800;28;20061;-75
2024/04/02 02:48:31;;;;;;;1.20;0.40;;;7.90;99.90;;;;;;5034975;28;20071;-76
2024/04/02 02:50:58;;;;;;;2.55;0.70;;;7.80;99.90;;;;;;5034450;28;20056;-76
2024/04/02 02:53:25;;;;;;;4.13;1.15;;;7.80;99.90;;;;;;5034273;28;20053;-76
2024/04/02 02:55:54;;;;;;;1.05;0.60;;;7.80;99.90;;;;;;5034064;28;20057;-77
2024/04/02 02:58:21;;;;;;;3.65;0.80;;;7.80;99.90;;;;;;5034411;28;20041;-75
2024/04/02 03:00:47;;;;;;;1.40;0.50;;;7.80;99.90;;;;;;5033924;28;20052;-77
2024/04/02 03:03:13;;;;;;;1.65;0.40;;;7.80;99.90;;;;;;5035387;28;20053;-76
2024/04/02 03:05:39;;;;;;;0.82;0.40;;;7.70;99.90;;;;;;5034505;28;20052;-77
2024/04/02 03:08:08;;;;;;;4.20;0.55;;;7.70;99.90;;;;;;5034518;28;20494;-76
2024/04/02 03:10:34;;;;;;;1.23;0.50;;;7.70;99.90;;;;;;5035049;28;20068;-76
2024/04/02 03:13:01;;;;;;;2.42;0.63;;;7.70;99.90;;;;;;5034326;28;20513;-77
2024/04/02 03:15:27;;;;;;;1.15;0.60;;;7.70;99.90;;;;;;5034096;28;20050;-77
2024/04/02 03:17:53;;;;;;;0.80;0.60;;;7.70;99.90;;;;;;5034531;28;20049;-77
2024/04/02 03:20:19;;;;;;;2.85;0.57;;;7.70;99.90;;;;;;5034892;28;20068;-77
2024/04/02 03:22:46;;;;;;;1.27;0.50;;;7.70;99.90;;;;;;5033833;28;20046;-76
2024/04/02 03:25:13;;;;;;;1.00;0.45;;;7.60;99.90;;;;;;5033299;28;20418;-75
2024/04/02 03:27:40;;;;;;;3.20;0.70;;;7.60;99.90;;;;;;5033992;28;20049;-77
2024/04/02 03:30:08;;;;;;;2.05;0.60;;;7.60;99.90;;;;;;5046955;28;20049;-77
2024/04/02 03:32:35;;;;;;;0.80;0.60;;;7.50;99.90;;;;;;5054080;28;20041;-77
2024/04/02 03:35:01;;;;;;;1.80;1.17;;;7.50;99.90;;;;;;5053442;28;20552;-77
2024/04/02 03:37:28;;;;;;;4.20;1.30;;;7.50;99.90;;;;;;5054018;28;20076;-77
2024/04/02 03:39:55;;;;;;;2.25;1.33;;;7.50;99.90;;;;;;5054468;28;20041;-77
2024/04/02 03:42:23;;;;;;;1.27;0.90;;;7.50;99.90;;;;;;5053449;28;20053;-77
2024/04/02 03:44:50;;;;;;;3.47;0.65;;;7.40;99.90;;;;;;5052993;28;20055;-77
2024/04/02 03:47:16;;;;;;;3.58;0.63;;;7.40;99.90;;;;;;5053769;28;20412;-77
2024/04/02 03:49:44;;;;;;;2.25;1.20;;;7.40;99.90;;;;;;5053771;28;20053;-76
2024/04/02 03:52:11;;;;;;;5.07;1.13;;;7.40;99.90;;;;;;5052011;28;20048;-76
2024/04/02 03:54:37;;;;;;;2.15;1.00;;;7.30;99.90;;;;;;5052977;28;20053;-77
2024/04/02 03:57:11;;;;;;;5.22;0.90;;;7.30;99.90;;;;;;5055472;28;20051;-76
2024/04/02 03:59:38;;;;;;;3.05;1.20;;;7.30;99.90;;;;;;5031358;28;20053;-76
2024/04/02 04:02:05;;;;;;;2.65;0.98;;;7.40;99.90;;;;;;5033307;28;20394;-76
2024/04/02 04:04:31;;;;;;;0.95;0.47;;;7.40;99.90;;;;;;5036446;28;20056;-77
2024/04/02 04:06:58;;;;;;;1.10;0.65;;;7.40;99.90;;;;;;5038552;28;20080;-76
2024/04/02 04:09:24;;;;;;;2.17;0.80;;;7.40;99.90;;;;;;5037700;28;20041;-77
2024/04/02 04:11:51;;;;;;;0.75;0.60;;;7.40;99.90;;;;;;5037357;28;20716;-77
2024/04/02 04:14:17;;;;;;;0.43;0.43;;;7.50;99.90;;;;;;5037647;28;20107;-76
2024/04/02 04:16:45;;;;;;;0.60;0.55;;;7.50;99.90;;;;;;5037755;28;20045;-77
2024/04/02 04:19:11;;;;;;;1.35;0.50;;;7.50;99.90;;;;;;5037945;28;20050;-76
2024/04/02 04:21:37;;;;;;;2.30;0.70;;;7.50;99.90;;;;;;5038573;28;20391;-77
2024/04/02 04:24:03;;;;;;;1.35;0.70;;;7.50;99.90;;;;;;5038936;28;20052;-77
2024/04/02 04:26:31;;;;;;;3.03;1.60;;;7.50;99.90;;;;;;5039318;28;20045;-76
2024/04/02 04:28:57;;;;;;;4.28;1.40;;;7.50;99.90;;;;;;5038112;28;20088;-77
2024/04/02 04:31:23;;;;;;;0.40;0.40;;;7.50;99.90;;;;;;5038800;28;20045;-76
2024/04/02 04:33:50;;;;;;;0.75;0.40;;;7.60;99.90;;;;;;5039238;28;20061;-76
2024/04/02 04:36:17;;;;;;;0.93;0.50;;;7.70;99.90;;;;;;5038732;28;20050;-76
2024/04/02 04:38:45;;;;;;;0.43;0.28;;;7.70;99.90;;;;;;5038470;28;20072;-77
2024/04/02 04:41:12;;;;;;;0.90;0.40;;;7.80;99.90;;;;;;5040674;28;20063;-76
2024/04/02 04:43:38;;;;;;;0.77;0.50;;;7.80;99.90;;;;;;5041020;28;20054;-76
2024/04/02 04:46:04;;;;;;;0.70;0.40;;;7.90;99.90;;;;;;5040101;28;20045;-77
2024/04/02 04:48:31;;;;;;;3.30;0.60;;;7.90;99.90;;;;;;5040706;28;20057;-76
2024/04/02 04:51:00;;;;;;;2.30;0.40;;;7.90;99.90;;;;;;5040732;28;20063;-77
2024/04/02 04:53:27;;;;;;;0.75;0.40;;;7.90;99.90;;;;;;5042303;28;20395;-76
2024/04/02 04:55:58;;;;;;;2.40;0.40;;;7.80;99.90;;;;;;5040294;28;20098;-76
2024/04/02 04:58:24;;;;;;;0.65;0.30;;;7.90;99.90;;;;;;5040587;28;20051;-78
2024/04/02 05:00:51;;;;;;;0.40;0.30;;;8.00;99.90;;;;;;5047766;28;20087;-77
2024/04/02 05:03:17;;;;;;;1.27;0.35;;;8.00;99.90;;;;;;5040924;28;20052;-76
2024/04/02 05:05:44;;;;;;;0.73;0.50;;;8.00;99.90;;;;;;5044194;28;20049;-77
2024/04/02 05:08:22;;;;;;;0.70;0.45;;;8.00;99.90;;;;;;5047296;28;20060;-76
2024/04/02 05:10:50;;;;;;;0.47;0.22;;;8.00;99.90;;;;;;5045286;28;20115;-76
2024/04/02 05:13:17;;;;;;;1.60;0.47;;;8.00;99.90;;;;;;5051762;28;20308;-77
2024/04/02 05:15:44;;;;;;;0.55;0.43;;;8.20;99.90;;;;;;5051837;28;20451;-77
2024/04/02 05:18:10;;;;;;;1.75;0.50;;;8.20;99.90;;;;;;5052644;28;20064;-76
2024/04/02 05:20:37;;;;;;;1.40;0.50;;;8.20;99.90;;;;;;5057114;28;20037;-77
2024/04/02 05:23:04;;;;;;;1.42;0.63;;;8.50;99.90;;;;;;5059099;28;20036;-76
2024/04/02 05:25:32;;;;;;;6.25;0.60;;;8.70;99.90;;;;;;5058080;28;20061;-76
2024/04/02 05:27:59;;;;;;;1.20;0.50;;;8.80;99.90;;;;;;5056978;28;20041;-77
2024/04/02 05:30:25;;;;;;;1.15;0.50;;;8.70;99.90;;;;;;5047820;28;20051;-76
2024/04/02 05:32:51;;;;;;;0.95;0.60;;;8.60;99.90;;;;;;5036395;28;20053;-76
2024/04/02 05:35:18;;;;;;;3.42;0.52;;;8.60;99.90;;;;;;5035232;28;20055;-77
2024/04/02 05:37:44;;;;;;;0.90;0.45;;;8.60;99.90;;;;;;5036374;28;20481;-76
2024/04/02 05:40:12;;;;;;;0.90;0.47;;;8.70;99.90;;;;;;5036164;28;20056;-76
2024/04/02 05:42:40;;;;;;;0.55;0.50;;;8.80;99.90;;;;;;5036577;28;20055;-76
2024/04/02 05:45:06;;;;;;;1.92;0.52;;;9.00;99.90;;;;;;5037393;28;20099;-77
2024/04/02 05:47:32;;;;;;;2.33;0.40;;;9.90;99.90;;;;;;5036478;28;20053;-76
2024/04/02 05:49:59;;;;;;;1.20;0.50;;;11.10;99.90;;;;;;5036763;28;20051;-76
2024/04/02 05:52:25;;;;;;;1.02;0.40;;;12.10;99.90;;;;;;5037471;28;20391;-76
2024/04/02 05:54:51;;;;;;;2.20;0.50;;;12.80;99.90;;;;;;5045630;28;20041;-77
2024/04/02 05:57:17;;;;;;;1.55;0.50;;;13.10;99.90;;;;;;5048367;28;20054;-76
2024/04/02 05:59:46;;;;;;;1.13;0.40;;;13.40;99.90;;;;;;5032063;28;20105;-78
2024/04/02 06:02:11;;;;;;;0.70;0.32;;;13.70;99.90;;;;;;5031702;28;20413;-77
2024/04/02 06:04:38;;;;;;;1.25;0.50;;;14.30;99.90;;;;;;5016110;28;20050;-77
2024/04/02 06:07:04;;;;;;;2.10;0.50;;;15.00;99.90;;;;;;5018235;28;20049;-77
2024/04/02 06:09:31;;;;;;;2.83;0.50;;;15.60;99.90;;;;;;5036198;28;20510;-77
2024/04/02 06:11:57;;;;;;;0.82;0.40;;;16.10;99.90;;;;;;5018932;28;20100;-77
2024/04/02 06:14:25;;;;;;;1.20;0.30;;;16.80;99.90;;;;;;5037099;28;20046;-77
2024/04/02 06:16:52;;;;;;;1.20;0.50;;;17.30;99.90;;;;;;5035568;28;20072;-77
2024/04/02 06:19:18;;;;;;;4.00;0.80;;;17.80;99.90;;;;;;5037067;28;20050;-76
2024/04/02 06:21:44;;;;;;;1.33;0.60;;;18.30;99.90;;;;;;5034090;28;20148;-77
2024/04/02 06:24:11;;;;;;;3.50;0.60;;;18.80;99.90;;;;;;5030747;28;20042;-77
2024/04/02 06:26:37;;;;;;;0.70;0.43;;;19.30;99.90;;;;;;5016733;28;20049;-78
2024/04/02 06:29:03;;;;;;;2.30;0.35;;;20.30;99.90;;;;;;5016875;28;20052;-77
2024/04/02 06:31:29;;;;;;;2.72;0.50;;;20.50;97.40;;;;;;5018149;28;20054;-77
2024/04/02 06:33:57;;;;;;;1.75;0.40;;;19.10;97.30;;;;;;5022583;28;20064;-77
2024/04/02 06:36:23;;;;;;;0.52;0.35;;;17.60;98.50;;;;;;5029309;28;20068;-77
2024/04/02 06:38:50;;;;;;;2.17;0.60;;;16.20;99.90;;;;;;5036487;28;20045;-77
2024/04/02 06:41:16;;;;;;;1.48;0.30;;;15.10;99.90;;;;;;5037134;28;20100;-77
2024/04/02 06:43:43;;;;;;;2.92;0.30;;;14.30;99.90;;;;;;5036531;28;20053;-78
2024/04/02 06:46:09;;;;;;;0.40;0.30;;;13.60;99.90;;;;;;5036966;28;20070;-76
2024/04/02 06:48:36;;;;;;;1.45;0.40;;;13.10;99.90;;;;;;5037517;28;20048;-76
2024/04/02 06:51:04;;;;;;;1.20;0.45;;;12.80;99.90;;;;;;5037812;28;20037;-77
2024/04/02 06:53:32;;;;;;;2.22;0.50;;;12.50;99.90;;;;;;5036354;28;20145;-77
2024/04/02 06:55:59;;;;;;;0.63;0.30;;;12.30;99.90;;;;;;5036997;28;20030;-76
2024/04/02 06:58:26;;;;;;;1.10;0.35;;;12.20;99.90;;;;;;5036722;28;20069;-77
2024/04/02 07:00:52;;;;;;;0.75;0.30;;;12.20;99.90;;;;;;5031780;28;20042;-75
2024/04/02 07:03:21;;;;;;;1.48;0.40;;;12.40;99.90;;;;;;5015103;28;20076;-77
2024/04/02 07:05:47;;;;;;;3.47;0.30;;;13.00;99.90;;;;;;5014825;28;20045;-77
2024/04/02 07:08:18;;;;;;;1.08;0.28;;;14.50;99.90;;;;;;5016034;28;20073;-77
2024/04/02 07:10:45;;;;;;;1.40;0.40;;;15.70;99.90;;;;;;5017047;28;20042;-79
2024/04/02 07:13:12;;;;;;;0.95;0.40;;;16.40;99.90;;;;;;5017253;28;20471;-77
2024/04/02 07:15:40;;;;;;;0.55;0.30;;;17.60;99.90;;;;;;5015170;28;20050;-78
2024/04/02 07:18:07;;;;;;;0.85;0.30;;;18.70;99.90;;;;;;5014532;28;20046;-78
2024/04/02 07:20:33;;;;;;;1.40;0.30;;;19.50;99.90;;;;;;5014674;28;20392;-77
2024/04/02 07:23:00;;;;;;;0.88;0.43;;;20.60;98.30;;;;;;5014855;28;20120;-76
2024/04/02 07:25:27;;;;;;;2.28;0.43;;;21.20;97.20;;;;;;5017254;28;20050;-77
2024/04/02 07:27:54;;;;;;;1.42;0.45;;;21.80;95.30;;;;;;5016170;28;20128;-77
2024/04/02 07:30:21;;;;;;;0.73;0.40;;;22.00;94.20;;;;;;5014925;28;20050;-77
2024/04/02 07:32:51;;;;;;;1.40;0.55;;;22.60;92.00;;;;;;5015027;28;20065;-77
2024/04/02 07:35:17;;;;;;;2.30;0.70;;;22.90;91.90;;;;;;5014895;28;20153;-77
2024/04/02 07:37:44;;;;;;;1.42;0.70;;;23.60;90.00;;;;;;5014434;28;20073;-77
2024/04/02 07:40:10;;;;;;;1.90;0.70;;;24.00;84.90;;;;;;5014365;28;20054;-78
2024/04/02 07:42:38;;;;;;;1.80;0.55;;;24.70;82.30;;;;;;5014521;28;20410;-77
2024/04/02 07:45:07;;;;;;;2.38;0.60;;;25.00;75.00;;;;;;5014756;28;20467;-77
2024/04/02 07:47:33;;;;;;;2.20;0.63;;;24.70;74.20;;;;;;5014635;28;20056;-77
2024/04/02 07:50:03;;;;;;;2.08;0.88;;;23.70;72.40;;;;;;5014465;28;20080;-77
2024/04/02 07:52:30;;;;;;;1.40;0.70;;;23.30;74.20;;;;;;5015472;28;20069;-77
2024/04/02 07:54:56;;;;;;;2.70;0.60;;;23.80;72.60;;;;;;5015400;28;20054;-77
2024/04/02 07:57:23;;;;;;;4.00;1.25;;;24.60;71.00;;;;;;5015993;28;20056;-78
2024/04/02 07:59:50;;;;;;;5.45;0.75;;;24.70;69.00;;;;;;5034250;28;20501;-78
2024/04/02 08:02:17;;;;;;;3.08;1.02;;;23.90;67.90;;;;;;5034955;28;20057;-77
2024/04/02 08:04:43;;;;;;;2.97;0.95;;;23.90;69.10;;;;;;5033917;28;20065;-77
2024/04/02 08:07:11;;;;;;;2.40;0.60;;;23.20;68.80;;;;;;5034697;28;20144;-77
2024/04/02 08:09:37;;;;;;;1.85;0.73;;;22.50;69.60;;;;;;5035031;28;20425;-77
2024/04/02 08:12:04;;;;;;;3.33;1.13;;;22.50;69.80;;;;;;5034274;28;20045;-77
2024/04/02 08:14:32;;;;;;;6.50;0.95;;;22.50;69.30;;;;;;5034271;28;20053;-77
2024/04/02 08:17:02;;;;;;;2.53;0.68;;;22.70;69.70;;;;;;5033644;28;20114;-77
2024/04/02 08:19:28;;;;;;;4.15;0.77;;;22.50;68.30;;;;;;5035173;28;20049;-77
2024/04/02 08:21:55;;;;;;;4.78;0.70;;;22.90;70.00;;;;;;5035018;28;20060;-78
2024/04/02 08:24:21;;;;;;;1.98;0.80;;;23.80;67.00;;;;;;5033974;28;20046;-78
2024/04/02 08:26:48;;;;;;;3.45;0.85;;;23.50;65.50;;;;;;5034784;28;20045;-77
2024/04/02 08:29:14;;;;;;;3.20;0.90;;;22.30;67.00;;;;;;5034961;28;20533;-77
2024/04/02 08:31:41;;;;;;;3.03;0.80;;;22.90;67.50;;;;;;5034623;28;20132;-78
2024/04/02 08:34:08;;;;;;;2.47;0.73;;;23.10;66.10;;;;;;5035382;28;20049;-77
2024/04/02 08:36:37;;;;;;;7.70;1.02;;;22.50;66.10;;;;;;5033561;28;20059;-78
2024/04/02 08:39:03;;;;;;;3.15;0.95;;;21.80;67.20;;;;;;5034580;28;20065;-78
2024/04/02 08:41:30;;;;;;;2.67;0.70;;;21.20;69.70;;;;;;5033060;28;20137;-77
2024/04/02 08:43:57;;;;;;;3.30;0.80;;;20.60;69.70;;;;;;5033185;28;20046;-77
2024/04/02 08:46:26;;;;;;;3.75;1.02;;;20.00;73.30;;;;;;5033729;28;20073;-77
2024/04/02 08:48:52;;;;;;;5.43;1.17;;;20.10;74.50;;;;;;5033897;28;20054;-77
2024/04/02 08:51:21;;;;;;;3.08;0.93;;;19.60;73.70;;;;;;5037904;28;20073;-77
2024/04/02 08:53:47;;;;;;;4.90;1.20;;;18.60;75.80;;;;;;5037586;28;20410;-77
2024/04/02 08:56:16;;;;;;;8.15;0.93;;;18.00;78.20;;;;;;5036615;28;20508;-77
2024/04/02 08:58:43;;;;;;;4.05;0.88;;;17.50;80.30;;;;;;5024336;28;20081;-77
2024/04/02 09:01:12;;;;;;;4.97;1.00;;;17.10;81.00;;;;;;5017127;28;20119;-77
2024/04/02 09:03:38;;;;;;;5.72;0.75;;;16.90;82.20;;;;;;5017518;28;20100;-76
2024/04/02 09:06:05;;;;;;;3.45;0.70;;;18.60;82.10;;;;;;5016836;28;20046;-77
2024/04/02 09:08:42;;;;;;;3.83;1.05;;;19.90;77.70;;;;;;5017000;28;20049;-77
2024/04/02 09:11:09;;;;;;;2.20;0.60;;;18.90;75.90;;;;;;5017799;28;20128;-77
2024/04/02 09:13:36;;;;;;;4.75;1.00;;;18.10;77.00;;;;;;5016653;28;20427;-78
2024/04/02 09:16:03;;;;;;;4.55;0.80;;;18.20;79.00;;;;;;5017159;28;20562;-78
2024/04/02 09:18:32;;;;;;;5.13;1.27;;;17.80;78.60;;;;;;5018109;28;20046;-77
2024/04/02 09:21:00;;;;;;;4.55;1.10;;;17.40;79.70;;;;;;5016874;28;20133;-77
2024/04/02 09:23:26;;;;;;;4.30;0.90;;;17.10;80.80;;;;;;5017881;28;20050;-77
2024/04/02 09:25:54;;;;;;;2.97;0.90;;;16.60;81.30;;;;;;5016608;28;20049;-77
2024/04/02 09:28:20;;;;;;;4.90;1.00;;;16.10;81.30;;;;;;5016921;28;20054;-77
2024/04/02 09:30:47;;;;;;;5.10;1.02;;;16.10;82.40;;;;;;5016546;28;20046;-78
2024/04/02 09:33:16;;;;;;;5.22;0.82;;;16.00;82.10;;;;;;5016136;28;20049;-77
2024/04/02 09:36:03;;;;;;;3.45;0.85;;;15.80;82.40;;;;;;5016648;28;20045;-77
2024/04/02 09:38:29;;;;;;;4.93;0.85;;;17.20;83.20;;;;;;5017269;28;20058;-77
2024/04/02 09:40:59;;;;;;;6.43;1.27;;;19.20;78.10;;;;;;5016596;28;20107;-76
2024/04/02 09:43:26;;;;;;;6.82;1.58;;;21.00;74.90;;;;;;5016501;28;20054;-77
2024/04/02 09:45:53;;;;;;;5.80;1.00;;;21.40;70.30;;;;;;5016304;28;20058;-77
2024/04/02 09:48:22;;;;;;;2.05;0.80;;;22.60;69.20;;;;;;5016484;28;20056;-78
2024/04/02 09:50:52;;;;;;;2.55;0.63;;;23.00;65.80;;;;;;5016478;28;20473;-77
2024/04/02 09:53:18;;;;;;;6.22;1.00;;;23.40;64.00;;;;;;5022718;28;20046;-77
2024/04/02 09:55:45;;;;;;;3.30;1.08;;;24.10;62.00;;;;;;5024847;28;20120;-77
2024/04/02 09:58:15;;;;;;;4.90;1.27;;;25.30;59.70;;;;;;5030457;28;20144;-77
2024/04/02 10:00:46;;;;;;;4.57;0.93;;;25.10;58.50;;;;;;5048954;28;20056;-76
2024/04/02 10:03:13;;;;;;;5.32;1.05;;;25.10;58.20;;;;;;5056500;28;20048;-77
2024/04/02 10:05:39;;;;;;;4.53;1.40;;;23.70;56.70;;;;;;5056885;28;20065;-77
2024/04/02 10:08:07;;;;;;;3.15;1.08;;;21.70;58.10;;;;;;5056547;28;20033;-76
2024/04/02 10:10:39;;;;;;;3.60;1.20;;;20.40;61.40;;;;;;5057503;28;20125;-77
2024/04/02 10:13:07;;;;;;;4.10;0.90;;;19.40;63.90;;;;;;5058050;28;20033;-77
2024/04/02 10:15:34;;;;;;;3.65;1.00;;;18.90;66.70;;;;;;5057402;28;20053;-77
2024/04/02 10:18:02;;;;;;;5.32;1.23;;;18.80;67.80;;;;;;5048329;28;20121;-76
2024/04/02 10:20:30;;;;;;;5.32;0.70;;;18.50;68.70;;;;;;5048019;28;20052;-76
2024/04/02 10:22:58;;;;;;;5.05;0.95;;;18.20;67.90;;;;;;5049525;28;20052;-76
2024/04/02 10:25:25;;;;;;;3.25;0.90;;;18.10;68.30;;;;;;5051791;28;20041;-76
2024/04/02 10:27:57;;;;;;;5.90;1.20;;;18.00;70.70;;;;;;5051113;28;20046;-76
2024/04/02 10:30:24;;;;;;;2.72;0.70;;;18.10;68.70;;;;;;5045609;28;20057;-77
2024/04/02 10:32:53;;;;;;;4.50;0.90;;;17.90;68.00;;;;;;5038609;28;20049;-77
2024/04/02 10:35:20;;;;;;;6.43;1.05;;;17.60;68.90;;;;;;5035145;28;20053;-76
2024/04/02 10:37:49;;;;;;;3.63;1.02;;;17.50;68.90;;;;;;5035329;28;20056;-78
2024/04/02 10:40:15;;;;;;;3.60;0.80;;;18.90;69.10;;;;;;5035365;28;20132;-77
2024/04/02 10:42:43;;;;;;;5.72;0.82;;;20.20;66.30;;;;;;5035764;28;20049;-77
2024/04/02 10:45:09;;;;;;;4.25;0.77;;;21.80;63.40;;;;;;5036247;28;20092;-79
2024/04/02 10:47:37;;;;;;;7.03;1.00;;;22.30;60.20;;;;;;5035896;28;20045;-78
2024/04/02 10:50:05;;;;;;;4.18;0.98;;;20.80;59.40;;;;;;5035933;28;20564;-76
2024/04/02 10:52:36;;;;;;;1.35;0.63;;;19.50;60.80;;;;;;5040929;28;20060;-76
2024/04/02 10:55:03;;;;;;;5.15;0.95;;;18.60;63.40;;;;;;5038895;28;20054;-76
2024/04/02 10:57:31;;;;;;;6.18;1.05;;;18.00;66.00;;;;;;5036882;28;20045;-77
2024/04/02 11:00:00;;;;;;;3.80;0.90;;;17.80;69.30;;;;;;5021397;28;20427;-77
2024/04/02 11:02:27;;;;;;;2.08;0.90;;;17.50;71.80;;;;;;5022076;28;20046;-76
2024/04/02 11:04:54;;;;;;;3.80;0.73;;;17.40;72.70;;;;;;5018927;28;20053;-77
2024/04/02 11:07:22;;;;;;;2.55;0.57;;;17.50;72.90;;;;;;5024022;28;20063;-77
2024/04/02 11:09:49;;;;;;;2.40;0.80;;;17.20;72.40;;;;;;5026388;28;20103;-77
2024/04/02 11:12:15;;;;;;;3.58;0.90;;;17.00;73.90;;;;;;5032683;28;20033;-75
2024/04/02 11:14:42;;;;;;;2.72;0.88;;;17.30;76.50;;;;;;5036790;28;20045;-77
2024/04/02 11:17:08;;;;;;;5.95;1.00;;;17.50;76.80;;;;;;5036474;28;20056;-76
2024/04/02 11:19:37;;;;;;;4.70;1.20;;;17.50;77.00;;;;;;5036657;28;20042;-76
2024/04/02 11:25:03;;;;;;;3.45;1.00;;;16.70;76.50;;;;;;5037558;28;20037;-77
2024/04/02 11:27:31;;;;;;;6.38;1.10;;;16.30;77.50;;;;;;5038013;28;20036;-77
2024/04/02 11:29:58;;;;;;;6.70;0.65;;;16.50;78.40;;;;;;5037435;28;20077;-77
2024/04/02 11:32:24;;;;;;;4.53;0.88;;;16.80;77.70;;;;;;5031215;28;20062;-77
2024/04/02 11:34:58;;;;;;;6.10;0.90;;;16.90;77.50;;;;;;5020499;28;20046;-76
2024/04/02 11:37:24;;;;;;;6.82;1.02;;;17.00;77.00;;;;;;5013071;28;20050;-76
2024/04/02 11:39:53;;;;;;;1.30;0.60;;;17.20;77.40;;;;;;5012973;28;20056;-76
2024/04/02 11:42:20;;;;;;;3.45;0.73;;;17.10;76.60;;;;;;5013208;28;20052;-77
2024/04/02 11:44:47;;;;;;;4.03;1.00;;;17.10;77.20;;;;;;5013075;28;20081;-76
2024/04/02 11:47:13;;;;;;;3.50;0.70;;;17.00;74.70;;;;;;5013354;28;20049;-75
2024/04/02 11:49:41;;;;;;;1.52;0.60;;;16.90;74.20;;;;;;5013465;28;20049;-78
2024/04/02 11:52:08;;;;;;;2.17;0.85;;;16.70;74.20;;;;;;5012951;28;20097;-76
2024/04/02 11:54:34;;;;;;;3.03;1.05;;;16.70;75.90;;;;;;5013338;28;20274;-77
2024/04/02 12:02:31;;;;;;;2.53;0.60;;;17.10;74.40;;;;;;5033339;28;20060;-76
2024/04/02 12:04:58;;;;;;;1.38;0.52;;;17.00;75.10;;;;;;5032467;28;20045;-77
2024/04/02 12:07:24;;;;;;;1.13;0.55;;;17.00;73.80;;;;;;5033508;28;20054;-77
2024/04/02 12:09:56;;;;;;;3.45;0.65;;;17.00;71.50;;;;;;5033175;28;20056;-76
2024/04/02 12:12:23;;;;;;;2.33;0.47;;;17.10;71.60;;;;;;5033073;28;20053;-77
2024/04/02 12:14:50;;;;;;;2.83;0.47;;;17.20;73.60;;;;;;5032778;28;20053;-77
2024/04/02 12:17:16;;;;;;;2.22;0.52;;;17.40;72.40;;;;;;5032519;28;20060;-77
2024/04/02 12:19:43;;;;;;;3.53;0.70;;;17.40;72.70;;;;;;5033237;28;20045;-77
2024/04/02 12:22:09;;;;;;;1.83;0.38;;;17.30;73.30;;;;;;5032500;28;20057;-76
2024/04/02 12:24:36;;;;;;;3.60;0.70;;;17.30;72.80;;;;;;5034190;28;20052;-77
2024/04/02 12:27:02;;;;;;;2.05;0.63;;;17.10;72.60;;;;;;5036328;28;20085;-77
2024/04/02 12:29:30;;;;;;;2.25;0.60;;;16.90;72.30;;;;;;5036598;28;20097;-77
2024/04/02 12:31:57;;;;;;;4.88;0.93;;;16.70;71.90;;;;;;5035936;28;20049;-77
2024/04/02 12:34:23;;;;;;;5.68;0.93;;;16.70;72.70;;;;;;5036527;28;20486;-77
2024/04/02 12:36:49;;;;;;;3.85;0.73;;;16.70;74.10;;;;;;5038123;28;20474;-77
2024/04/02 12:39:16;;;;;;;3.22;0.75;;;16.70;74.00;;;;;;5036779;28;20046;-77
2024/04/02 12:41:42;;;;;;;1.88;0.68;;;16.60;74.30;;;;;;5036705;28;20041;-77
2024/04/02 12:44:09;;;;;;;2.78;0.80;;;16.40;75.30;;;;;;5036206;28;20046;-77
2024/04/02 12:46:37;;;;;;;1.25;0.47;;;16.10;79.30;;;;;;5036514;28;20057;-77
2024/04/02 12:49:06;;;;;;;2.63;0.90;;;15.80;83.90;;;;;;5036880;28;20049;-77
2024/04/02 12:51:33;;;;;;;5.57;1.13;;;15.70;86.00;;;;;;5037760;28;20505;-77
2024/04/02 12:53:59;;;;;;;1.23;0.70;;;15.90;87.30;;;;;;5038218;28;20406;-76
2024/04/02 12:56:26;;;;;;;1.65;0.80;;;16.00;87.10;;;;;;5037661;28;20486;-77
2024/04/02 12:58:53;;;;;;;0.90;0.45;;;15.90;85.80;;;;;;5037730;28;20057;-77